Time;durP1;ratioP1;P1;durP2;ratioP2;P2;SDS_P1;SDS_P2;PMS_P1;PMS_P2;Temp;Humidity;BMP_temperature;BMP_pressure;BME280_temperature;BME280_humidity;BME280_pressure;Samples;Min_cycle;Max_cycle;Signal;HPM_P1;HPM_P2
2024/03/19 00:00:41;;;;;;;28.92;16.27;;;8.40;99.90;;;-144.05;91.01;56963.53;5013267;28;20052;-81
2024/03/19 00:03:08;;;;;;;31.48;15.50;;;8.40;99.90;;;-144.05;91.17;56986.91;5019641;28;20036;-81
2024/03/19 00:05:34;;;;;;;26.67;15.32;;;;;;;-144.05;91.27;56955.03;5014171;28;20026;-81
2024/03/19 00:08:01;;;;;;;36.75;19.75;;;;;;;-144.05;91.21;56965.66;5014051;28;20388;-80
2024/03/19 00:10:27;;;;;;;48.83;24.55;;;;;;;-144.05;91.35;56995.38;5013734;28;20030;-79
2024/03/19 00:12:53;;;;;;;46.97;23.95;;;;;;;-144.05;91.96;56984.78;5014078;28;20434;-79
2024/03/19 00:15:19;;;;;;;44.97;22.77;;;;;;;-144.05;91.46;57006.00;5013966;28;20471;-79
2024/03/19 00:17:46;;;;;;;30.40;18.35;;;;;;;-144.05;91.74;56959.28;5008882;28;20030;-79
2024/03/19 00:20:12;;;;;;;37.55;18.98;;;;;;;-144.05;91.92;56950.78;5014068;28;20087;-82
2024/03/19 00:22:39;;;;;;;31.20;17.05;;;;;;;-144.05;91.69;56976.28;5012923;28;20112;-80
2024/03/19 00:25:06;;;;;;;31.35;17.13;;;;;;;-144.05;91.38;56955.03;5010414;28;20512;-80
2024/03/19 00:27:33;;;;;;;28.90;15.75;;;8.40;99.90;;;-144.05;90.69;56986.91;5014433;28;20490;-81
2024/03/19 00:30:02;;;;;;;25.48;14.70;;;;;;;-144.05;90.97;56963.53;5014271;28;20076;-79
2024/03/19 00:32:32;;;;;;;28.50;15.13;;;;;;;-144.05;90.60;56986.91;5014570;28;20022;-80
2024/03/19 00:34:58;;;;;;;27.55;14.35;;;;;;;-144.05;91.04;56980.53;5013551;28;20064;-79
2024/03/19 00:37:25;;;;;;;28.58;14.95;;;;;;;-144.05;90.87;56976.28;5013842;28;20368;-79
2024/03/19 00:39:51;;;;;;;31.13;16.00;;;;;;;-144.05;91.29;56955.03;5012287;28;20033;-80
2024/03/19 00:42:17;;;;;;;28.00;15.70;;;;;;;-144.05;90.73;56984.78;5019156;28;20029;-78
2024/03/19 00:44:43;;;;;;;28.85;14.13;;;;;;;-144.05;90.91;56995.38;5013830;28;20103;-80
2024/03/19 00:47:09;;;;;;;31.20;14.65;;;;;;;-144.05;90.70;56974.16;5018527;28;20022;-80
2024/03/19 00:49:35;;;;;;;23.73;14.00;;;;;;;-144.05;91.12;56965.66;5016077;28;20069;-79
2024/03/19 00:52:03;;;;;;;23.98;14.13;;;;;;;-144.05;90.68;56986.91;5014557;28;20050;-80
2024/03/19 00:54:30;;;;;;;27.60;13.75;;;;;;;-144.05;90.51;56978.41;5014724;28;20041;-79
2024/03/19 00:56:56;;;;;;;26.42;13.40;;;;;;;-144.05;90.96;56978.41;5014133;28;20018;-81
2024/03/19 00:59:22;;;;;;;28.02;14.32;;;;;;;-144.05;91.23;56986.91;5013437;28;20018;-80
2024/03/19 01:01:48;;;;;;;29.45;14.40;;;;;;;-144.05;90.97;56978.41;5013646;28;20026;-81
2024/03/19 01:04:14;;;;;;;31.27;15.32;;;;;;;-144.05;90.62;56969.91;5018929;28;20026;-80
2024/03/19 01:06:41;;;;;;;26.70;14.40;;;;;;;-144.05;90.77;56989.00;5013615;28;20044;-80
2024/03/19 01:09:12;;;;;;;23.45;14.10;;;;;;;-144.05;90.83;56986.91;5018607;28;20321;-80
2024/03/19 01:11:39;;;;;;;27.52;14.77;;;;;;;-144.05;90.90;56978.41;5013024;28;20034;-81
2024/03/19 01:14:05;;;;;;;26.08;13.90;;;;;;;-144.05;90.86;56957.16;5013503;28;20076;-82
2024/03/19 01:16:35;;;;;;;25.70;14.50;;;8.30;99.90;;;-144.05;90.66;56989.00;5011636;28;20128;-81
2024/03/19 01:19:02;;;;;;;27.58;14.43;;;;;;;-144.05;90.77;56995.38;5013095;28;20348;-81
2024/03/19 01:21:28;;;;;;;27.08;14.13;;;;;;;-144.05;90.59;57001.75;5012876;28;20053;-80
2024/03/19 01:23:56;;;;;;;25.77;13.10;;;;;;;-144.05;90.76;56993.25;5013469;28;20093;-79
2024/03/19 01:26:23;;;;;;;27.88;13.90;;;;;;;-144.05;90.67;56993.25;5010573;28;20160;-80
2024/03/19 01:28:49;;;;;;;27.08;13.02;;;;;;;-144.05;90.71;56989.00;5013920;28;20049;-79
2024/03/19 01:31:15;;;;;;;23.80;12.82;;;;;;;-144.05;91.09;56991.13;5018327;28;20026;-81
2024/03/19 01:33:42;;;;;;;21.55;12.45;;;;;;;-144.05;90.84;56986.91;5012288;28;20407;-81
2024/03/19 01:36:08;;;;;;;21.38;12.45;;;;;;;-144.05;91.36;56986.91;5013994;28;20026;-81
2024/03/19 01:38:36;;;;;;;24.25;11.95;;;;;;;-144.05;91.23;56969.91;5012476;28;20025;-80
2024/03/19 01:41:04;;;;;;;28.95;13.38;;;;;;;-144.05;91.62;56999.63;5014052;28;20064;-78
2024/03/19 01:43:30;;;;;;;23.08;12.65;;;;;;;-144.05;91.84;56978.41;5014082;28;20048;-79
2024/03/19 01:46:29;;;;;;;25.35;14.20;;;7.70;99.90;;;-144.05;91.96;57010.25;5013565;28;20076;-81
2024/03/19 01:48:58;;;;;;;32.58;14.98;;;7.90;99.90;;;-144.05;92.23;56974.16;5025965;28;20022;-81
2024/03/19 01:51:26;;;;;;;38.22;17.15;;;7.90;99.90;;;-144.05;92.11;56995.38;5018764;28;20022;-82
2024/03/19 01:53:56;;;;;;;31.42;16.23;;;8.00;99.90;;;-144.05;92.55;56969.91;5018628;28;20131;-81
2024/03/19 01:56:23;;;;;;;28.13;15.57;;;8.10;99.90;;;-144.05;92.17;56982.66;5014099;28;20133;-82
2024/03/19 01:58:51;;;;;;;31.73;16.27;;;;;;;-144.05;92.04;56969.91;5014620;28;20036;-82
2024/03/19 02:01:17;;;;;;;25.75;14.70;;;;;;;-144.05;91.84;56993.25;5014505;28;20038;-81
2024/03/19 02:03:45;;;;;;;28.95;14.13;;;8.10;99.90;;;-144.05;91.95;56950.78;5014097;28;20026;-82
2024/03/19 02:06:16;;;;;;;28.05;15.02;;;8.00;99.90;;;-144.05;91.60;56963.53;5014454;28;20037;-80
2024/03/19 02:09:09;;;;;;;28.45;15.32;;;8.20;99.90;;;-144.05;91.71;56995.38;5013346;28;20022;-80
2024/03/19 02:11:36;;;;;;;26.30;13.68;;;8.10;99.90;;;-144.05;91.78;56991.13;5019051;28;20404;-81
2024/03/19 02:14:05;;;;;;;26.25;14.88;;;8.10;99.90;;;-144.05;91.84;56961.41;5019805;28;20033;-82
2024/03/19 02:16:31;;;;;;;25.40;13.80;;;;;;;-144.05;92.05;56967.78;5029575;28;20052;-82
2024/03/19 02:19:04;;;;;;;30.33;15.50;;;8.00;99.90;;;-144.05;92.21;56974.16;5026081;28;20481;-81
2024/03/19 02:21:34;;;;;;;31.88;16.88;;;7.80;99.90;;;-144.05;92.62;56967.78;5027732;28;20049;-81
2024/03/19 02:24:03;;;;;;;29.25;14.50;;;8.50;99.90;;;-144.05;92.29;57001.75;5027642;28;20029;-81
2024/03/19 02:26:31;;;;;;;39.80;17.90;;;8.20;99.90;;;-144.05;92.59;56963.53;5018321;28;20087;-80
2024/03/19 02:28:59;;;;;;;37.13;17.58;;;;;;;-144.05;92.09;56972.03;5016398;28;20018;-81
2024/03/19 02:31:27;;;;;;;32.78;15.02;;;;;;;-144.05;91.98;57001.75;5019661;28;20042;-81
2024/03/19 02:33:55;;;;;;;28.90;15.13;;;8.20;99.90;;;-144.05;91.67;56978.41;5022083;28;20113;-80
2024/03/19 02:36:23;;;;;;;31.05;16.05;;;;;;;-144.05;91.66;56965.66;5031584;28;20041;-80
2024/03/19 02:38:50;;;;;;;32.15;15.52;;;;;;;-144.05;91.66;56991.13;5017019;28;20058;-82
2024/03/19 02:41:16;;;;;;;33.45;17.10;;;;;;;-144.05;91.81;56955.03;5016961;28;20041;-79
2024/03/19 02:43:42;;;;;;;32.33;15.90;;;;;;;-144.05;91.75;56963.53;5015345;28;20109;-80
2024/03/19 02:46:09;;;;;;;37.83;16.98;;;;;;;-144.05;91.43;56993.25;5016568;28;20030;-81
2024/03/19 02:48:35;;;;;;;31.92;16.50;;;;;;;-144.05;91.44;56974.16;5017531;28;20014;-82
2024/03/19 02:51:01;;;;;;;41.28;18.20;;;;;;;-144.05;91.10;56980.53;5016461;28;20026;-80
2024/03/19 02:53:28;;;;;;;35.03;19.63;;;;;;;-144.05;91.35;56948.66;5014942;28;20064;-80
2024/03/19 02:55:55;;;;;;;30.80;15.48;;;;;;;-144.05;91.12;56997.50;5026452;28;20010;-79
2024/03/19 02:58:22;;;;;;;39.42;17.35;;;;;;;-144.05;90.85;56967.78;5042302;28;20045;-76
2024/03/19 03:00:49;;;;;;;30.55;16.35;;;;;;;-144.05;91.07;57008.13;5023129;28;20132;-80
2024/03/19 03:03:15;;;;;;;35.17;16.75;;;;;;;-144.05;91.05;56974.16;5020269;28;20052;-82
2024/03/19 03:05:45;;;;;;;32.22;16.75;;;7.60;99.90;;;-144.05;90.65;56963.53;5019157;28;20022;-83
2024/03/19 03:08:12;;;;;;;36.20;17.00;;;;;;;-144.05;90.60;56963.53;5033085;28;20030;-82
2024/03/19 03:10:40;;;;;;;42.05;18.75;;;8.20;99.90;;;-144.05;91.06;56976.28;5017123;28;20391;-82
2024/03/19 03:13:06;;;;;;;38.00;17.77;;;;;;;-144.05;91.27;57001.75;5030494;28;20049;-79
2024/03/19 03:15:32;;;;;;;39.53;18.65;;;;;;;-144.05;90.93;56993.25;5029497;28;20034;-81
2024/03/19 03:17:59;;;;;;;36.88;17.70;;;;;;;-144.05;90.82;57003.88;5016159;28;20860;-81
2024/03/19 03:20:26;;;;;;;40.97;17.75;;;;;;;-144.05;90.33;56982.66;5016662;28;20034;-82
2024/03/19 03:22:52;;;;;;;32.92;17.48;;;;;;;-144.05;89.55;56967.78;5016057;28;20040;-82
2024/03/19 03:25:18;;;;;;;30.80;16.48;;;;;;;-144.05;89.00;56989.00;5016612;28;20030;-79
2024/03/19 03:27:45;;;;;;;34.88;16.88;;;;;;;-144.05;88.95;56972.03;5016365;28;20022;-81
2024/03/19 03:30:13;;;;;;;35.53;17.05;;;8.80;99.90;;;-144.05;88.18;56982.66;5015703;28;20057;-81
2024/03/19 03:32:42;;;;;;;35.33;17.38;;;8.70;99.90;;;-144.05;87.97;56989.00;5016394;28;20048;-82
2024/03/19 03:35:10;;;;;;;34.03;16.52;;;;;;;-144.05;87.53;56976.28;5018621;28;20046;-81
2024/03/19 03:37:37;;;;;;;38.22;17.33;;;;;;;-144.05;87.82;56976.28;5032001;28;20048;-80
2024/03/19 03:40:13;;;;;;;32.70;16.48;;;8.80;99.90;;;-144.05;87.05;56982.66;5020784;28;20080;-82
2024/03/19 03:42:41;;;;;;;25.75;13.55;;;;;;;-144.05;86.15;56984.78;5019469;28;20029;-79
2024/03/19 03:45:10;;;;;;;28.17;14.32;;;;;;;-144.05;86.00;57006.00;5013934;28;20045;-80
2024/03/19 03:47:40;;;;;;;31.20;15.52;;;;;;;-144.05;86.17;56997.50;5015500;28;20084;-80
2024/03/19 03:50:08;;;;;;;30.75;14.35;;;;;;;-144.05;86.96;56963.53;5015102;28;20018;-80
2024/03/19 03:52:36;;;;;;;28.25;12.13;;;8.10;99.90;;;-144.05;86.88;56993.25;5015482;28;20076;-81
2024/03/19 03:55:04;;;;;;;31.27;15.82;;;8.00;99.90;;;-144.05;87.23;56993.25;5029786;28;20033;-82
2024/03/19 03:57:33;;;;;;;33.90;15.95;;;;;;;-144.05;88.20;56982.66;5027188;28;20025;-78
2024/03/19 04:00:05;;;;;;;34.45;17.02;;;;;;;-144.05;88.60;57012.38;5014277;28;20022;-82
2024/03/19 04:02:32;;;;;;;33.65;18.05;;;;;;;-144.05;88.89;56961.41;5012790;28;20034;-81
2024/03/19 04:04:58;;;;;;;34.53;16.73;;;;;;;-144.05;89.43;56974.16;5014538;28;20112;-80
2024/03/19 04:07:24;;;;;;;37.42;17.27;;;;;;;-144.05;89.29;56972.03;5013804;28;20030;-82
2024/03/19 04:09:50;;;;;;;40.92;17.27;;;;;;;-144.05;89.51;56995.38;5013610;28;20049;-81
2024/03/19 04:12:16;;;;;;;39.10;18.02;;;;;;;-144.05;89.38;56993.25;5012540;28;20040;-81
2024/03/19 04:14:43;;;;;;;34.95;16.30;;;;;;;-144.05;89.01;56955.03;5018574;28;20029;-80
2024/03/19 04:17:12;;;;;;;38.28;17.83;;;;;;;-144.05;88.68;56989.00;5013958;28;20547;-80
2024/03/19 04:19:38;;;;;;;36.33;17.38;;;;;;;-144.05;88.18;56950.78;5013472;28;20026;-81
2024/03/19 04:22:05;;;;;;;32.95;16.45;;;;;;;-144.05;87.93;56976.28;5014003;28;20072;-80
2024/03/19 04:24:31;;;;;;;34.17;16.70;;;;;;;-144.05;87.68;56972.03;5011159;28;20033;-80
2024/03/19 04:26:58;;;;;;;30.17;16.27;;;;;;;-144.05;87.27;56980.53;5013684;28;20033;-81
2024/03/19 04:29:24;;;;;;;31.08;16.23;;;;;;;-144.05;87.53;56982.66;5013345;28;20030;-80
2024/03/19 04:31:51;;;;;;;34.75;16.75;;;;;;;-144.05;87.43;56976.28;5013669;28;20053;-83
2024/03/19 04:34:17;;;;;;;29.80;15.75;;;;;;;-144.05;87.18;56980.53;5013417;28;20025;-81
2024/03/19 04:36:43;;;;;;;34.92;16.20;;;;;;;-144.05;87.39;56965.66;5011640;28;20109;-80
2024/03/19 04:39:17;;;;;;;29.20;15.40;;;8.70;99.90;;;-144.05;86.80;56972.03;5011287;28;20068;-80
2024/03/19 04:41:44;;;;;;;28.98;15.23;;;;;;;-144.05;86.74;56976.28;5013754;28;20014;-81
2024/03/19 04:44:10;;;;;;;38.08;19.33;;;;;;;-144.05;86.80;56969.91;5014557;28;20033;-81
2024/03/19 04:46:36;;;;;;;27.20;16.35;;;;;;;-144.05;86.93;56980.53;5014477;28;20410;-81
2024/03/19 04:49:03;;;;;;;28.17;13.95;;;;;;;-144.05;86.80;56993.25;5016554;28;20028;-80
2024/03/19 04:51:31;;;;;;;29.10;13.88;;;;;;;-144.05;86.62;57001.75;5023995;28;20025;-81
2024/03/19 04:53:57;;;;;;;28.42;14.77;;;;;;;-144.05;87.04;56969.91;5015676;28;20021;-79
2024/03/19 04:56:24;;;;;;;30.15;14.43;;;;;;;-144.05;87.22;56974.16;5015342;28;20030;-81
2024/03/19 04:58:50;;;;;;;32.05;15.13;;;;;;;-144.05;87.26;56963.53;5015488;28;20026;-79
2024/03/19 05:01:18;;;;;;;32.58;14.00;;;8.20;99.90;;;-144.05;87.50;56995.38;5013353;28;20503;-81
2024/03/19 05:03:45;;;;;;;33.75;16.25;;;;;;;-144.05;87.75;56974.16;5013314;28;20021;-80
2024/03/19 05:06:12;;;;;;;37.33;17.25;;;;;;;-144.05;88.23;56976.28;5013633;28;20026;-80
2024/03/19 05:08:40;;;;;;;35.72;16.48;;;8.20;99.90;;;-144.05;88.35;56995.38;5014887;28;20212;-79
2024/03/19 05:11:06;;;;;;;25.77;12.98;;;;;;;-144.05;88.30;56961.41;5015059;28;20022;-81
2024/03/19 05:13:33;;;;;;;27.98;14.90;;;;;;;-144.05;88.45;56980.53;5015482;28;20033;-81
2024/03/19 05:15:59;;;;;;;32.17;15.40;;;;;;;-144.05;88.52;57010.25;5013438;28;20068;-80
2024/03/19 05:18:25;;;;;;;34.45;15.43;;;;;;;-144.05;88.25;56972.03;5014565;28;20069;-80
2024/03/19 05:20:51;;;;;;;38.65;16.42;;;;;;;-144.05;88.45;56959.28;5014364;28;20048;-79
2024/03/19 05:23:18;;;;;;;34.97;16.55;;;;;;;-144.05;88.52;56976.28;5014910;28;20030;-80
2024/03/19 05:25:44;;;;;;;34.13;16.40;;;;;;;-144.05;89.13;56999.63;5013335;28;20112;-80
2024/03/19 05:28:11;;;;;;;36.60;16.63;;;;;;;-144.05;89.44;56986.91;5015321;28;20026;-78
2024/03/19 05:30:37;;;;;;;34.72;15.20;;;;;;;-144.05;89.14;56955.03;5025757;28;20025;-79
2024/03/19 05:33:04;;;;;;;31.65;15.25;;;;;;;-144.05;89.64;56972.03;5017774;28;20041;-80
2024/03/19 05:35:30;;;;;;;35.60;15.32;;;;;;;-144.05;89.22;56965.66;5015490;28;20097;-78
2024/03/19 05:37:56;;;;;;;30.15;15.18;;;7.00;99.90;;;-144.05;89.59;56997.50;5018636;28;20046;-79
2024/03/19 05:40:22;;;;;;;34.00;14.35;;;;;;;-144.05;89.70;56969.91;5030562;28;20529;-80
2024/03/19 05:42:48;;;;;;;32.10;15.02;;;;;;;-144.05;89.30;56965.66;5016350;28;20537;-81
2024/03/19 05:45:15;;;;;;;33.30;14.40;;;;;;;-144.05;89.01;56963.53;5014958;28;20026;-80
2024/03/19 05:47:41;;;;;;;27.98;14.88;;;;;;;-144.05;88.97;56967.78;5012888;28;20105;-82
2024/03/19 05:50:08;;;;;;;29.92;14.55;;;;;;;-144.05;88.67;56976.28;5015324;28;20041;-81
2024/03/19 05:52:36;;;;;;;30.10;15.40;;;8.90;99.90;;;-144.05;88.30;56959.28;5017199;28;20022;-79
2024/03/19 05:55:02;;;;;;;27.15;12.88;;;;;;;-144.05;87.74;56946.53;5016726;28;20041;-80
2024/03/19 05:57:29;;;;;;;29.33;14.05;;;;;;;-144.05;87.43;56993.25;5014636;28;20139;-81
2024/03/19 05:59:55;;;;;;;25.58;13.63;;;6.80;99.90;;;-144.05;87.47;56938.03;5014990;28;20032;-79
2024/03/19 06:02:21;;;;;;;27.52;14.02;;;7.10;99.90;;;-144.05;86.88;56961.41;5012741;28;20102;-79
2024/03/19 06:04:47;;;;;;;25.65;12.63;;;;;;;-144.05;87.05;56980.53;5014862;28;20026;-80
2024/03/19 06:07:13;;;;;;;28.45;13.38;;;7.10;99.90;;;-144.05;86.65;56957.16;5014848;28;20083;-81
2024/03/19 06:09:43;;;;;;;30.38;13.18;;;;;;;-144.05;86.67;56967.78;5014022;28;20030;-80
2024/03/19 06:12:10;;;;;;;28.98;13.55;;;6.80;99.90;;;-144.05;86.78;56952.91;5014477;28;20030;-80
2024/03/19 06:14:37;;;;;;;31.25;14.02;;;;;;;-144.05;86.76;56982.66;5014784;28;20028;-81
2024/03/19 06:17:03;;;;;;;26.90;13.45;;;;;;;-144.05;86.92;56976.28;5013756;28;20026;-79
2024/03/19 06:19:30;;;;;;;23.38;11.63;;;;;;;-144.05;86.75;56974.16;5012062;28;20026;-81
2024/03/19 06:21:56;;;;;;;28.33;12.52;;;;;;;-144.05;86.25;56995.38;5015432;28;20344;-79
2024/03/19 06:24:22;;;;;;;24.98;12.13;;;;;;;-144.05;85.85;56974.16;5026950;28;20041;-80
2024/03/19 06:26:50;;;;;;;29.70;13.32;;;9.50;99.90;;;-144.05;85.28;56957.16;5031283;28;20014;-80
2024/03/19 06:29:16;;;;;;;26.55;13.05;;;;;;;-144.05;85.27;56984.78;5042052;28;20061;-80
2024/03/19 06:31:43;;;;;;;19.98;10.48;;;;;;;-144.05;84.86;56980.53;5016194;28;20024;-82
2024/03/19 06:34:09;;;;;;;25.20;11.80;;;;;;;-144.05;84.65;56982.66;5016028;28;20461;-80
2024/03/19 06:36:36;;;;;;;25.10;12.02;;;;;;;-144.05;84.70;56989.00;5016510;28;20113;-82
2024/03/19 06:39:03;;;;;;;23.30;11.43;;;;;;;-144.05;84.00;57006.00;5016755;28;20038;-81
2024/03/19 06:41:34;;;;;;;29.17;13.45;;;;;;;-144.05;84.10;56969.91;5015401;28;20026;-81
2024/03/19 06:44:01;;;;;;;20.15;11.35;;;;;;;-144.05;84.34;56952.91;5017123;28;20072;-81
2024/03/19 06:46:27;;;;;;;22.20;12.48;;;;;;;-144.05;84.23;56963.53;5016030;28;20030;-81
2024/03/19 06:48:54;;;;;;;25.70;12.43;;;;;;;-144.05;84.09;56986.91;5016948;28;20483;-79
2024/03/19 06:51:19;;;;;;;28.13;12.48;;;6.80;99.90;;;-144.05;84.53;56986.91;5017133;28;20030;-78
2024/03/19 06:53:46;;;;;;;29.13;12.45;;;;;;;-144.05;84.50;56942.28;5016498;28;20510;-79
2024/03/19 06:56:12;;;;;;;27.40;12.63;;;;;;;-144.05;84.65;56946.53;5015118;28;20026;-79
2024/03/19 06:58:38;;;;;;;22.98;11.05;;;;;;;-144.05;84.43;56957.16;5019274;28;20132;-78
2024/03/19 07:01:05;;;;;;;24.38;11.93;;;;;;;-144.05;84.19;56944.41;5034779;28;20009;-79
2024/03/19 07:03:31;;;;;;;23.58;11.13;;;;;;;-144.05;84.35;56982.66;5032261;28;20121;-81
2024/03/19 07:05:57;;;;;;;28.20;12.23;;;;;;;-144.05;84.38;56963.53;5022876;28;20046;-82
2024/03/19 07:08:26;;;;;;;27.70;14.75;;;;;;;-144.05;84.13;56991.13;5021492;28;20064;-80
2024/03/19 07:10:54;;;;;;;27.58;11.60;;;9.60;99.90;;;-144.05;84.32;56993.25;5022520;28;20399;-81
2024/03/19 07:13:21;;;;;;;21.00;10.95;;;;;;;-144.05;83.78;56938.03;5020554;28;20030;-81
2024/03/19 07:15:48;;;;;;;24.75;12.38;;;;;;;-144.05;84.51;56976.28;5021218;28;20487;-79
2024/03/19 07:18:14;;;;;;;23.38;11.27;;;;;;;-144.05;84.30;56991.13;5020488;28;20422;-80
2024/03/19 07:20:40;;;;;;;25.83;12.95;;;;;;;-144.05;84.21;56978.41;5033134;28;20349;-80
2024/03/19 07:23:07;;;;;;;22.20;11.60;;;;;;;-144.05;83.52;56972.03;5020078;28;20025;-79
2024/03/19 07:25:34;;;;;;;24.50;11.60;;;;;;;-144.05;83.38;56978.41;5019190;28;20034;-80
2024/03/19 07:28:00;;;;;;;20.60;11.82;;;;;;;-144.05;83.27;56963.53;5020610;28;20056;-82
2024/03/19 07:30:27;;;;;;;27.23;12.40;;;;;;;-144.05;83.10;56978.41;5021060;28;20105;-79
2024/03/19 07:32:55;;;;;;;21.20;10.95;;;;;;;-144.05;82.76;56955.03;5020863;28;20029;-79
2024/03/19 07:35:22;;;;;;;25.20;12.10;;;10.30;99.90;;;-144.05;82.51;56957.16;5020214;28;20379;-81
2024/03/19 07:37:51;;;;;;;21.35;11.73;;;;;;;-144.05;82.29;56978.41;5021585;28;20472;-83
2024/03/19 07:40:20;;;;;;;27.65;12.00;;;;;;;-144.05;81.90;56955.03;5021571;28;20626;-79
2024/03/19 07:42:50;;;;;;;23.33;11.60;;;;;;;-144.05;81.78;56955.03;5012636;28;20369;-81
2024/03/19 07:45:17;;;;;;;28.60;11.15;;;;;;;-144.05;81.27;56961.41;5022374;28;20034;-80
2024/03/19 07:47:43;;;;;;;23.63;11.57;;;7.70;99.90;;;-144.05;81.18;56957.16;5021943;28;20081;-79
2024/03/19 07:50:13;;;;;;;26.10;11.80;;;;;;;-144.05;80.57;56982.66;5021407;28;20018;-81
2024/03/19 07:52:39;;;;;;;23.83;10.82;;;;;;;-144.05;80.15;56984.78;5021596;28;20573;-82
2024/03/19 07:55:06;;;;;;;25.10;12.80;;;15.20;99.90;;;-144.05;79.67;56974.16;5022007;28;20075;-82
2024/03/19 07:57:32;;;;;;;17.00;10.57;;;;;;;-144.05;79.23;56940.16;5022697;28;20026;-83
2024/03/19 08:00:05;;;;;;;22.00;12.30;;;15.00;99.90;;;-144.05;78.88;56986.91;5021879;28;20037;-82
2024/03/19 08:02:32;;;;;;;19.52;11.77;;;;;;;-144.05;77.94;56955.03;5021863;28;20049;-80
2024/03/19 08:04:58;;;;;;;21.55;11.48;;;;;;;-144.05;77.23;56972.03;5020959;28;20022;-80
2024/03/19 08:07:24;;;;;;;20.85;11.20;;;;;;;-144.05;76.34;56944.41;5025390;28;20034;-81
2024/03/19 08:09:51;;;;;;;27.55;12.85;;;7.70;99.90;;;-144.05;76.28;56972.03;5020467;28;20021;-81
2024/03/19 08:12:17;;;;;;;23.48;11.55;;;;;;;-144.05;76.19;56989.00;5019753;28;20026;-79
2024/03/19 08:14:43;;;;;;;20.05;10.45;;;;;;;-144.05;76.03;56955.03;5016880;28;20025;-81
2024/03/19 08:17:10;;;;;;;24.10;11.18;;;;;;;-144.05;76.47;57003.88;5018279;28;20033;-83
2024/03/19 08:19:36;;;;;;;20.33;11.90;;;8.00;99.90;;;-144.05;76.68;56942.28;5019072;28;20026;-82
2024/03/19 08:22:04;;;;;;;22.73;11.88;;;14.60;99.90;;;-144.05;76.57;56965.66;5021458;28;20033;-81
2024/03/19 08:24:32;;;;;;;25.02;12.95;;;;;;;-144.05;76.07;56952.91;5019828;28;20495;-82
2024/03/19 08:26:58;;;;;;;25.23;12.60;;;;;;;-144.05;75.95;56974.16;5021031;28;20366;-82
2024/03/19 08:29:24;;;;;;;23.23;11.85;;;;;;;-144.05;75.87;56946.53;5018124;28;20036;-82
2024/03/19 08:31:51;;;;;;;25.40;11.75;;;;;;;-144.05;75.50;56938.03;5020303;28;20026;-81
2024/03/19 08:34:17;;;;;;;19.33;11.27;;;;;;;-144.05;75.30;56967.78;5028987;28;20088;-83
2024/03/19 08:36:43;;;;;;;22.20;11.73;;;8.20;99.90;;;-144.05;74.88;56957.16;5037305;28;20025;-82
2024/03/19 08:39:10;;;;;;;24.15;12.60;;;8.10;99.90;;;-144.05;74.63;56952.91;5019513;28;20049;-83
2024/03/19 08:41:36;;;;;;;26.17;11.98;;;;;;;-144.05;74.32;56929.53;5019482;28;20022;-80
2024/03/19 08:44:03;;;;;;;27.67;11.45;;;;;;;-144.05;74.03;56957.16;5018958;28;20094;-81
2024/03/19 08:46:29;;;;;;;22.10;11.77;;;;;;;-144.05;73.39;56940.16;5017455;28;20403;-82
2024/03/19 08:48:55;;;;;;;29.58;12.35;;;;;;;-144.05;73.43;56927.41;5018671;28;20021;-81
2024/03/19 08:51:21;;;;;;;29.88;13.52;;;;;;;-144.05;72.24;56969.91;5019797;28;20036;-80
2024/03/19 08:53:48;;;;;;;22.85;11.95;;;;;;;-144.05;72.85;56942.28;5018316;28;20057;-81
2024/03/19 08:56:13;;;;;;;24.75;11.65;;;15.20;99.90;;;-144.05;72.58;56961.41;5031309;28;20025;-80
2024/03/19 08:58:39;;;;;;;21.48;11.93;;;15.20;99.90;;;-144.05;73.42;56959.28;5031049;28;20086;-82
2024/03/19 09:01:12;;;;;;;27.58;12.40;;;;;;;-144.05;70.46;56935.91;5029058;28;20012;-81
2024/03/19 09:03:40;;;;;;;31.60;12.35;;;10.40;99.90;;;-144.05;70.67;56950.78;5027727;28;20034;-81
2024/03/19 09:06:06;;;;;;;21.65;12.00;;;10.50;99.90;;;-144.05;69.10;56963.53;5017252;28;20021;-81
2024/03/19 09:08:33;;;;;;;24.75;13.25;;;;;;;-144.05;68.30;56955.03;5018338;28;20033;-81
2024/03/19 09:10:59;;;;;;;24.75;12.85;;;;;;;-144.05;66.51;56955.03;5017706;28;20155;-81
2024/03/19 09:13:25;;;;;;;26.88;12.80;;;10.30;99.90;;;-144.05;64.82;56921.06;5018640;28;20034;-81
2024/03/19 09:15:51;;;;;;;20.10;11.73;;;10.50;99.90;;;-144.05;65.16;56976.28;5025534;28;20076;-80
2024/03/19 09:18:17;;;;;;;24.27;12.90;;;15.50;99.90;;;-144.05;65.28;56952.91;5034245;28;20030;-80
2024/03/19 09:20:44;;;;;;;25.15;12.15;;;15.80;99.90;;;-144.05;64.60;56969.91;5033806;28;20033;-83
2024/03/19 09:23:10;;;;;;;25.67;12.40;;;;;;;-144.05;65.21;56952.91;5017953;28;20014;-81
2024/03/19 09:25:36;;;;;;;25.92;12.10;;;10.80;99.90;;;-144.05;64.73;56933.78;5017476;28;20033;-82
2024/03/19 09:28:02;;;;;;;26.63;12.75;;;10.60;99.90;;;-144.05;63.40;56967.78;5032365;28;20079;-82
2024/03/19 09:30:28;;;;;;;25.17;13.38;;;15.90;99.90;;;-144.05;63.57;56972.03;5017077;28;20090;-82
2024/03/19 09:32:54;;;;;;;22.38;12.55;;;;;;;-144.05;62.80;56950.78;5018239;28;20431;-83
2024/03/19 09:35:20;;;;;;;21.17;12.50;;;11.50;99.90;;;-144.05;62.42;56938.03;5016238;28;20050;-81
2024/03/19 09:37:46;;;;;;;25.50;13.20;;;11.40;99.90;;;-144.05;61.84;56948.66;5017229;28;20037;-83
2024/03/19 09:40:14;;;;;;;23.25;11.95;;;16.80;99.90;;;-144.05;60.08;56972.03;5016035;28;20034;-80
2024/03/19 09:42:41;;;;;;;22.20;12.05;;;16.80;99.90;;;-144.05;59.27;56938.03;5016208;28;20106;-81
2024/03/19 09:45:28;;;;;;;25.63;12.00;;;17.10;99.90;;;-144.05;58.06;56952.91;5017813;28;20049;-80
2024/03/19 09:47:56;;;;;;;25.20;12.55;;;12.20;99.90;;;-144.05;59.14;56946.53;5017095;28;20018;-81
2024/03/19 09:50:26;;;;;;;24.20;11.00;;;12.40;99.90;;;-144.05;60.33;56952.91;5028975;28;20446;-80
2024/03/19 09:52:55;;;;;;;29.50;12.70;;;16.10;99.90;;;-144.05;58.03;56944.41;5018152;28;20033;-82
2024/03/19 09:55:22;;;;;;;20.65;9.77;;;;;;;-144.05;57.27;56969.91;5018159;28;20547;-84
2024/03/19 09:57:51;;;;;;;23.27;11.20;;;16.30;99.90;;;-144.05;54.85;56955.03;5017887;28;20026;-80
2024/03/19 10:00:28;;;;;;;21.75;9.85;;;17.60;99.90;;;-144.05;55.55;56982.66;5016829;28;20144;-82
2024/03/19 10:02:55;;;;;;;25.77;11.35;;;17.20;99.90;;;-144.05;55.64;56944.41;5016406;28;20495;-82
2024/03/19 10:05:22;;;;;;;20.70;10.90;;;15.90;99.90;;;-144.05;56.55;56967.78;5017621;28;20030;-80
2024/03/19 10:07:53;;;;;;;23.33;11.65;;;12.40;99.90;;;-144.05;57.00;56965.66;5018051;28;20025;-81
2024/03/19 10:10:19;;;;;;;28.00;12.07;;;12.00;99.90;;;-144.05;58.38;56940.16;5017053;28;20030;-81
2024/03/19 10:12:46;;;;;;;19.33;10.68;;;16.90;99.90;;;-144.05;59.40;56965.66;5015485;28;20029;-81
2024/03/19 10:15:21;;;;;;;19.48;8.60;;;12.50;99.90;;;-144.05;58.77;56957.16;5017138;28;20046;-82
2024/03/19 10:17:48;;;;;;;14.70;7.28;;;16.10;99.90;;;-144.05;58.23;56963.53;5017979;28;20030;-82
2024/03/19 10:20:18;;;;;;;12.98;7.63;;;17.60;99.90;;;-144.05;55.97;56965.66;5017105;28;20022;-82
2024/03/19 10:22:46;;;;;;;19.75;7.40;;;17.50;99.90;;;-144.05;56.81;56980.53;5031169;28;20080;-82
2024/03/19 10:25:15;;;;;;;17.85;7.55;;;16.40;99.90;;;-144.05;55.89;56986.91;5016398;28;20037;-79
2024/03/19 10:27:49;;;;;;;13.65;6.70;;;12.70;99.90;;;-144.05;55.36;56942.28;5016075;28;20527;-82
2024/03/19 10:30:19;;;;;;;14.10;6.50;;;16.10;99.90;;;-144.05;54.27;56950.78;5014598;28;20029;-81
2024/03/19 10:32:46;;;;;;;15.25;6.97;;;17.30;99.90;;;-144.05;54.24;56972.03;5016674;28;20021;-81
2024/03/19 10:35:21;;;;;;;15.82;7.43;;;12.70;99.90;;;-144.05;55.60;56957.16;5030287;28;20101;-79
2024/03/19 10:37:52;;;;;;;14.95;7.15;;;12.40;99.90;;;-144.05;55.80;56948.66;5021579;28;20026;-82
2024/03/19 10:40:22;;;;;;;12.02;6.32;;;17.70;99.90;;;-144.05;54.85;56959.28;5022083;28;20071;-79